Time;durP1;ratioP1;P1;durP2;ratioP2;P2;SDS_P1;SDS_P2;PMS_P1;PMS_P2;Temp;Humidity;BMP_temperature;BMP_pressure;BME280_temperature;BME280_humidity;BME280_pressure;Samples;Min_cycle;Max_cycle;Signal;HPM_P1;HPM_P2
2023/04/02 00:02:06;;;;;;;;;;;;;;;17.14;48.34;101537.03;7258982;19;151912;-54
2023/04/02 00:04:36;;;;;;;;;;;;;;;17.20;47.99;101538.75;7259005;19;153442;-54
2023/04/02 00:07:14;;;;;;;;;;;;;;;17.16;47.95;101543.19;7258078;19;154435;-54
2023/04/02 00:09:41;;;;;;;;;;;;;;;17.16;48.33;101542.38;7266988;19;152368;-54
2023/04/02 00:12:14;;;;;;;;;;;;;;;17.16;48.20;101548.78;7257931;19;153963;-54
2023/04/02 00:14:44;;;;;;;;;;;;;;;17.16;48.29;101557.16;7259493;19;152894;-54
2023/04/02 00:17:12;;;;;;;;;;;;;;;17.13;48.06;101559.63;7258931;19;153210;-54
2023/04/02 00:19:42;;;;;;;;;;;;;;;17.12;48.28;101570.00;7260636;19;154273;-54
2023/04/02 00:22:14;;;;;;;;;;;;;;;17.14;48.39;101578.06;7260202;19;152469;-54
2023/04/02 00:24:41;;;;;;;;;;;;;;;17.13;48.37;101581.97;7260801;19;152152;-54
2023/04/02 00:27:10;;;;;;;;;;;;;;;17.12;48.32;101581.16;7261117;19;153992;-54
2023/04/02 00:29:47;;;;;;;;;;;;;;;17.16;48.11;101587.03;7262804;19;152874;-54
2023/04/02 00:32:18;;;;;;;;;;;;;;;17.13;48.27;101579.19;7262344;19;153025;-54
2023/04/02 00:34:45;;;;;;;;;;;;;;;17.17;47.89;101577.56;7259042;19;152247;-54
2023/04/02 00:37:17;;;;;;;;;;;;;;;17.15;48.02;101580.59;7261478;19;153647;-54
2023/04/02 00:39:44;;;;;;;;;;;;;;;17.14;48.08;101581.72;7262961;19;153278;-54
2023/04/02 00:42:16;;;;;;;;;;;;;;;17.15;48.11;101582.56;7259415;19;154301;-54
2023/04/02 00:44:44;;;;;;;;;;;;;;;17.12;48.23;101589.53;7257999;19;153151;-54
2023/04/02 00:47:21;;;;;;;;;;;;;;;17.17;47.74;101595.13;7255381;19;153989;-54
2023/04/02 00:49:52;;;;;;;;;;;;;;;17.12;47.87;101600.69;7258640;19;152945;-54
2023/04/02 00:52:22;;;;;;;;;;;;;;;17.12;48.41;101597.06;7260944;19;153247;-54
2023/04/02 00:54:52;;;;;;;;;;;;;;;17.12;48.09;101608.22;7263126;19;152827;-54
2023/04/02 00:57:24;;;;;;;;;;;;;;;17.09;48.18;101614.34;7260012;19;155365;-54
2023/04/02 00:59:56;;;;;;;;;;;;;;;17.10;47.93;101608.50;7260105;19;154334;-54
2023/04/02 01:02:29;;;;;;;;;;;;;;;17.09;48.02;101614.34;7257193;19;152101;-54
2023/04/02 01:04:58;;;;;;;;;;;;;;;17.10;48.23;101613.22;7259565;19;153101;-54
2023/04/02 01:07:36;;;;;;;;;;;;;;;17.12;48.13;101619.41;7254497;19;154306;-54
2023/04/02 01:10:13;;;;;;;;;;;;;;;17.09;48.24;101617.97;7259435;19;152939;-54
2023/04/02 01:12:48;;;;;;;;;;;;;;;17.08;47.96;101629.44;7259939;19;154236;-54
2023/04/02 01:15:25;;;;;;;;;;;;;;;17.11;48.16;101628.88;7263598;19;153326;-54
2023/04/02 01:18:01;;;;;;;;;;;;;;;17.09;48.14;101629.13;7252392;19;153465;-54
2023/04/02 01:20:38;;;;;;;;;;;;;;;17.06;48.05;101629.69;7259266;19;154456;-54
2023/04/02 01:23:12;;;;;;;;;;;;;;;17.06;48.04;101635.25;7258932;19;153538;-54
2023/04/02 01:25:39;;;;;;;;;;;;;;;17.08;48.34;101638.63;7257670;19;152614;-54
2023/04/02 01:28:18;;;;;;;;;;;;;;;17.06;48.35;101637.22;7258184;19;154002;-54
2023/04/02 01:30:50;;;;;;;;;;;;;;;17.06;48.39;101637.22;7255909;19;152595;-54
2023/04/02 01:33:18;;;;;;;;;;;;;;;17.06;48.38;101649.22;7254240;19;154105;-54
2023/04/02 01:35:49;;;;;;;;;;;;;;;17.05;48.39;101647.53;7255426;19;154067;-55
2023/04/02 01:38:21;;;;;;;;;;;;;;;17.05;48.20;101652.28;7263487;19;153074;-54
2023/04/02 01:40:53;;;;;;;;;;;;;;;17.02;48.16;101658.41;7259200;19;155623;-54
2023/04/02 01:43:23;;;;;;;;;;;;;;;17.02;48.04;101661.19;7257001;19;153205;-54
2023/04/02 01:45:49;;;;;;;;;;;;;;;17.04;48.14;101664.53;7257186;19;152763;-55
2023/04/02 01:48:23;;;;;;;;;;;;;;;17.05;48.22;101669.88;7253251;19;153460;-54
2023/04/02 01:50:53;;;;;;;;;;;;;;;17.04;48.27;101667.34;7257380;19;152115;-54
2023/04/02 01:53:21;;;;;;;;;;;;;;;17.00;48.45;101667.03;7258131;19;154066;-54
2023/04/02 01:55:48;;;;;;;;;;;;;;;17.00;48.29;101672.63;7255112;19;153707;-54
2023/04/02 01:58:18;;;;;;;;;;;;;;;17.02;48.22;101672.34;7254846;19;153861;-54
2023/04/02 02:00:49;;;;;;;;;;;;;;;17.04;48.18;101678.50;7261906;19;154005;-55
2023/04/02 02:03:16;;;;;;;;;;;;;;;17.00;48.05;101680.16;7253566;19;152020;-54
2023/04/02 02:05:45;;;;;;;;;;;;;;;16.99;48.19;101678.50;7256588;19;152995;-55
2023/04/02 02:08:20;;;;;;;;;;;;;;;17.05;48.35;101680.19;7252124;19;154262;-55
2023/04/02 02:10:48;;;;;;;;;;;;;;;17.03;48.27;101688.84;7259819;19;152339;-55
2023/04/02 02:13:15;;;;;;;;;;;;;;;17.00;48.14;101692.16;7258241;19;153607;-55
2023/04/02 02:15:42;;;;;;;;;;;;;;;17.01;48.03;101684.63;7250062;19;153872;-55
2023/04/02 02:18:10;;;;;;;;;;;;;;;17.00;48.43;101681.00;7257166;19;152031;-55
2023/04/02 02:20:37;;;;;;;;;;;;;;;17.00;48.23;101689.38;7256303;19;153501;-55
2023/04/02 02:23:04;;;;;;;;;;;;;;;16.97;48.20;101694.66;7265791;19;154276;-55
2023/04/02 02:25:33;;;;;;;;;;;;;;;16.99;48.47;101689.66;7252097;19;153429;-55
2023/04/02 02:28:00;;;;;;;;;;;;;;;17.04;48.36;101701.69;7253304;19;154019;-55
2023/04/02 02:30:31;;;;;;;;;;;;;;;17.00;48.22;101706.13;7255201;19;153744;-55
2023/04/02 02:33:02;;;;;;;;;;;;;;;16.97;48.24;101706.66;7253083;19;155297;-55
2023/04/02 02:35:42;;;;;;;;;;;;;;;17.01;48.15;101702.22;7257367;19;153989;-55
2023/04/02 02:38:24;;;;;;;;;;;;;;;16.99;48.00;101714.78;7262808;19;153298;-55
2023/04/02 02:40:53;;;;;;;;;;;;;;;16.96;48.41;101716.13;7261415;19;153693;-55
2023/04/02 02:43:20;;;;;;;;;;;;;;;16.97;48.43;101706.66;7260393;19;154433;-55
2023/04/02 02:45:47;;;;;;;;;;;;;;;16.98;48.42;101724.25;7268596;19;152923;-55
2023/04/02 02:48:17;;;;;;;;;;;;;;;16.96;48.25;101724.50;7259266;19;152927;-54
2023/04/02 02:50:44;;;;;;;;;;;;;;;16.97;48.29;101729.00;7262340;19;153909;-55
2023/04/02 02:53:15;;;;;;;;;;;;;;;17.00;48.45;101731.25;7261341;19;155124;-55
2023/04/02 02:55:42;;;;;;;;;;;;;;;17.00;48.24;101735.97;7261573;19;153702;-55
2023/04/02 02:58:13;;;;;;;;;;;;;;;17.03;47.92;101749.44;7260411;19;153384;-55
2023/04/02 03:00:41;;;;;;;;;;;;;;;17.00;48.43;101747.13;7263057;19;153468;-55
2023/04/02 03:03:13;;;;;;;;;;;;;;;16.96;48.28;101748.78;7258895;19;153630;-55
2023/04/02 03:05:40;;;;;;;;;;;;;;;16.97;48.25;101761.63;7267335;19;152687;-55
2023/04/02 03:08:13;;;;;;;;;;;;;;;16.95;48.39;101752.66;7260424;19;154169;-54
2023/04/02 03:10:43;;;;;;;;;;;;;;;16.99;48.36;101762.22;7262894;19;152662;-55
2023/04/02 03:13:20;;;;;;;;;;;;;;;16.98;48.27;101769.75;7259722;19;153865;-55
2023/04/02 03:15:57;;;;;;;;;;;;;;;17.00;48.06;101772.25;7256849;19;153998;-54
2023/04/02 03:18:31;;;;;;;;;;;;;;;16.97;48.30;101775.59;7263925;19;154027;-55
2023/04/02 03:21:07;;;;;;;;;;;;;;;16.99;48.04;101779.78;7258425;19;153683;-55
2023/04/02 03:23:38;;;;;;;;;;;;;;;16.99;48.24;101770.59;7260387;19;154135;-54
2023/04/02 03:26:07;;;;;;;;;;;;;;;17.01;48.21;101779.53;7262148;19;153255;-55
2023/04/02 03:28:37;;;;;;;;;;;;;;;16.99;48.13;101782.59;7268788;19;153643;-56
2023/04/02 03:31:07;;;;;;;;;;;;;;;16.97;48.37;101779.22;7256748;19;153159;-55
2023/04/02 03:33:39;;;;;;;;;;;;;;;16.95;48.22;101795.38;7258189;19;153357;-55
2023/04/02 03:36:17;;;;;;;;;;;;;;;17.00;48.31;101794.59;7254601;19;154419;-55
2023/04/02 03:38:50;;;;;;;;;;;;;;;16.97;48.11;101793.19;7260703;19;152533;-55
2023/04/02 03:41:20;;;;;;;;;;;;;;;16.98;48.14;101797.69;7261793;19;154082;-55
2023/04/02 03:43:50;;;;;;;;;;;;;;;16.96;48.00;101797.09;7255883;19;153846;-54
2023/04/02 03:46:23;;;;;;;;;;;;;;;16.93;48.52;101807.94;7256128;19;153844;-55
2023/04/02 03:49:00;;;;;;;;;;;;;;;16.94;48.29;101807.69;7259531;19;152713;-55
2023/04/02 03:51:33;;;;;;;;;;;;;;;16.97;48.35;101814.69;7271470;19;152680;-55
2023/04/02 03:54:00;;;;;;;;;;;;;;;16.96;48.20;101812.97;7260560;19;152940;-55
2023/04/02 03:56:30;;;;;;;;;;;;;;;16.94;48.34;101816.06;7257515;19;154269;-55
2023/04/02 03:59:06;;;;;;;;;;;;;;;16.93;48.24;101825.53;7260419;19;152569;-55
2023/04/02 04:01:38;;;;;;;;;;;;;;;16.98;48.01;101827.53;7258461;19;153068;-55
2023/04/02 04:04:09;;;;;;;;;;;;;;;16.97;48.30;101823.06;7259966;19;154916;-54
2023/04/02 04:06:40;;;;;;;;;;;;;;;16.92;48.44;101835.00;7258120;19;152790;-54
2023/04/02 04:09:09;;;;;;;;;;;;;;;16.92;48.33;101836.94;7263925;19;153472;-54
2023/04/02 04:11:38;;;;;;;;;;;;;;;16.93;48.32;101839.50;7262424;19;154048;-54
2023/04/02 04:14:08;;;;;;;;;;;;;;;16.92;48.03;101843.38;7268350;19;151950;-54
2023/04/02 04:16:46;;;;;;;;;;;;;;;16.95;48.01;101850.38;7255823;19;153500;-54
2023/04/02 04:19:14;;;;;;;;;;;;;;;16.92;48.27;101848.13;7259926;19;153149;-54
2023/04/02 04:21:44;;;;;;;;;;;;;;;16.96;48.06;101852.06;7258700;19;154361;-54
2023/04/02 04:24:16;;;;;;;;;;;;;;;16.94;48.37;101854.28;7258785;19;154540;-54
2023/04/02 04:26:52;;;;;;;;;;;;;;;16.91;48.10;101852.84;7257103;19;154305;-54
2023/04/02 04:29:28;;;;;;;;;;;;;;;16.93;48.11;101860.97;7259154;19;153322;-54
2023/04/02 04:31:57;;;;;;;;;;;;;;;16.92;48.29;101859.28;7255825;19;153992;-54
2023/04/02 04:34:28;;;;;;;;;;;;;;;16.92;48.19;101874.09;7257188;19;151813;-54
2023/04/02 04:37:00;;;;;;;;;;;;;;;16.91;48.21;101880.75;7262152;19;153632;-54
2023/04/02 04:39:34;;;;;;;;;;;;;;;16.91;48.21;101886.34;7258549;19;152508;-54
2023/04/02 04:42:03;;;;;;;;;;;;;;;16.88;48.07;101886.88;7260164;19;152783;-54
2023/04/02 04:44:37;;;;;;;;;;;;;;;16.85;48.56;101881.81;7257903;19;153940;-54
2023/04/02 04:47:14;;;;;;;;;;;;;;;16.88;48.19;101876.56;7254556;19;151960;-54
2023/04/02 04:49:43;;;;;;;;;;;;;;;16.88;48.16;101884.94;7262304;19;152635;-54
2023/04/02 04:52:20;;;;;;;;;;;;;;;16.90;48.25;101887.44;7261670;19;155096;-53
2023/04/02 04:54:47;;;;;;;;;;;;;;;16.87;48.25;101901.94;7256100;19;154513;-56
2023/04/02 04:57:20;;;;;;;;;;;;;;;16.87;48.09;101905.56;7254841;19;153470;-54
2023/04/02 04:59:51;;;;;;;;;;;;;;;16.87;48.12;101913.09;7267031;19;153913;-54
2023/04/02 05:02:26;;;;;;;;;;;;;;;16.86;48.12;101917.81;7254320;19;152676;-54
2023/04/02 05:04:52;;;;;;;;;;;;;;;16.85;48.18;101918.91;7255476;19;154365;-54
2023/04/02 05:07:30;;;;;;;;;;;;;;;16.88;48.04;101923.16;7257220;19;151920;-54
2023/04/02 05:10:06;;;;;;;;;;;;;;;16.88;48.29;101917.56;7258382;19;152965;-54
2023/04/02 05:12:43;;;;;;;;;;;;;;;16.86;48.30;101916.97;7260210;19;153560;-54
2023/04/02 05:15:19;;;;;;;;;;;;;;;16.89;47.83;101931.28;7256037;19;153940;-54
2023/04/02 05:17:52;;;;;;;;;;;;;;;16.89;47.90;101936.03;7258315;19;152901;-54
2023/04/02 05:20:30;;;;;;;;;;;;;;;16.87;48.17;101946.59;7266131;19;153964;-54
2023/04/02 05:23:07;;;;;;;;;;;;;;;16.87;48.09;101952.16;7259420;19;152929;-54
2023/04/02 05:25:34;;;;;;;;;;;;;;;16.86;48.09;101951.31;7254358;19;153629;-54
2023/04/02 05:28:10;;;;;;;;;;;;;;;16.86;48.42;101967.22;7254024;19;152370;-54
2023/04/02 05:30:48;;;;;;;;;;;;;;;16.85;48.20;101963.59;7259237;19;154326;-54
2023/04/02 05:33:18;;;;;;;;;;;;;;;16.89;47.79;101975.09;7256571;19;153381;-54
2023/04/02 05:35:48;;;;;;;;;;;;;;;16.88;47.91;101971.47;7255212;19;152620;-54
2023/04/02 05:38:19;;;;;;;;;;;;;;;16.86;47.92;101986.75;7255191;19;153670;-54
2023/04/02 05:40:47;;;;;;;;;;;;;;;16.88;48.27;101984.56;7257234;19;154436;-54
2023/04/02 05:43:16;;;;;;;;;;;;;;;16.84;48.22;101991.78;7269371;19;154042;-54
2023/04/02 05:45:44;;;;;;;;;;;;;;;16.85;48.06;102004.63;7254271;19;153969;-54
2023/04/02 05:48:21;;;;;;;;;;;;;;;16.82;47.95;102008.75;7255157;19;151997;-54
2023/04/02 05:50:50;;;;;;;;;;;;;;;16.82;48.00;102010.69;7260432;19;153134;-54
2023/04/02 05:53:20;;;;;;;;;;;;;;;16.82;47.97;102019.94;7259532;19;153348;-54
2023/04/02 05:55:52;;;;;;;;;;;;;;;16.81;48.25;102022.97;7255867;19;153984;-54
2023/04/02 05:58:24;;;;;;;;;;;;;;;16.82;48.22;102030.25;7256492;19;153491;-54
2023/04/02 06:01:01;;;;;;;;;;;;;;;16.80;48.21;102038.03;7257737;19;153165;-54
2023/04/02 06:03:37;;;;;;;;;;;;;;;16.81;47.89;102050.88;7258254;19;151774;-54
2023/04/02 06:06:12;;;;;;;;;;;;;;;16.83;48.14;102051.47;7264495;19;153948;-54
2023/04/02 06:08:44;;;;;;;;;;;;;;;16.83;47.92;102045.91;7257668;19;152418;-54
2023/04/02 06:11:13;;;;;;;;;;;;;;;16.81;48.09;102051.72;7266786;19;153678;-54
2023/04/02 06:13:39;;;;;;;;;;;;;;;16.80;47.86;102054.78;7263048;19;153434;-54
2023/04/02 06:16:07;;;;;;;;;;;;;;;16.84;48.02;102061.53;7261225;19;152314;-54
2023/04/02 06:18:35;;;;;;;;;;;;;;;16.80;47.82;102064.00;7264390;19;154358;-54
2023/04/02 06:21:03;;;;;;;;;;;;;;;16.80;48.10;102071.53;7260891;19;153344;-54
2023/04/02 06:23:40;;;;;;;;;;;;;;;16.82;47.63;102070.16;7261571;19;153303;-54
2023/04/02 06:26:17;;;;;;;;;;;;;;;16.78;47.87;102071.78;7260647;19;152658;-54
2023/04/02 06:28:46;;;;;;;;;;;;;;;16.82;47.73;102074.91;7269741;19;154136;-54
2023/04/02 06:31:24;;;;;;;;;;;;;;;16.81;47.60;102079.63;7265164;19;153797;-54
2023/04/02 06:33:53;;;;;;;;;;;;;;;16.79;47.80;102090.22;7261221;19;154540;-54
2023/04/02 06:36:21;;;;;;;;;;;;;;;16.79;48.10;102093.00;7261194;19;151839;-54
2023/04/02 06:38:49;;;;;;;;;;;;;;;16.81;47.81;102096.38;7260148;19;153842;-54
2023/04/02 06:41:19;;;;;;;;;;;;;;;16.80;47.93;102097.50;7264346;19;154096;-54
2023/04/02 06:43:51;;;;;;;;;;;;;;;16.80;47.85;102097.50;7266628;19;153078;-54
2023/04/02 06:46:19;;;;;;;;;;;;;;;16.76;47.86;102096.28;7258180;19;153545;-54
2023/04/02 06:48:47;;;;;;;;;;;;;;;16.75;47.56;102105.78;7259121;19;153970;-54
2023/04/02 06:51:15;;;;;;;;;;;;;;;16.77;47.56;102097.13;7272325;19;152753;-54
2023/04/02 06:53:44;;;;;;;;;;;;;;;16.77;47.92;102103.56;7262266;19;153310;-54
2023/04/02 06:56:21;;;;;;;;;;;;;;;16.79;47.46;102111.69;7262232;19;152007;-54
2023/04/02 06:58:48;;;;;;;;;;;;;;;16.79;47.66;102109.75;7262122;19;154518;-54
2023/04/02 07:01:23;;;;;;;;;;;;;;;16.77;47.53;102120.31;7262517;19;154139;-54
2023/04/02 07:03:50;;;;;;;;;;;;;;;16.78;47.71;102127.59;7259431;19;151967;-54
2023/04/02 07:06:18;;;;;;;;;;;;;;;16.76;47.95;102140.94;7260429;19;155461;-54
2023/04/02 07:08:45;;;;;;;;;;;;;;;16.79;47.67;102136.81;7260204;19;153955;-54
2023/04/02 07:11:15;;;;;;;;;;;;;;;16.76;47.81;102137.34;7262400;19;153994;-54
2023/04/02 07:13:46;;;;;;;;;;;;;;;16.75;47.53;102147.66;7271262;19;153420;-54
2023/04/02 07:16:17;;;;;;;;;;;;;;;16.74;47.71;102154.31;7256167;19;151974;-54
2023/04/02 07:18:45;;;;;;;;;;;;;;;16.73;47.38;102163.78;7258290;19;152608;-54
2023/04/02 07:21:12;;;;;;;;;;;;;;;16.76;47.28;102163.28;7259060;19;155336;-54
2023/04/02 07:23:39;;;;;;;;;;;;;;;16.76;47.33;102168.03;7265579;19;152640;-55
2023/04/02 07:26:06;;;;;;;;;;;;;;;16.73;47.35;102168.50;7261905;19;153368;-54
2023/04/02 07:28:33;;;;;;;;;;;;;;;16.73;47.72;102162.94;7262750;19;154742;-54
2023/04/02 07:31:00;;;;;;;;;;;;;;;16.71;47.54;102167.94;7259858;19;153692;-54
2023/04/02 07:33:29;;;;;;;;;;;;;;;16.75;47.50;102177.50;7269151;19;153678;-54
2023/04/02 07:35:56;;;;;;;;;;;;;;;16.73;47.67;102174.09;7259760;19;153273;-54
2023/04/02 07:38:23;;;;;;;;;;;;;;;16.72;47.38;102169.59;7258788;19;153547;-55
2023/04/02 07:40:50;;;;;;;;;;;;;;;16.72;47.43;102175.19;7259123;19;154259;-54
2023/04/02 07:43:17;;;;;;;;;;;;;;;16.70;47.39;102183.84;7258750;19;153045;-54
2023/04/02 07:45:44;;;;;;;;;;;;;;;16.70;47.32;102182.97;7259817;19;154251;-54
2023/04/02 07:48:12;;;;;;;;;;;;;;;16.73;47.57;102185.25;7257565;19;153719;-55
2023/04/02 07:50:39;;;;;;;;;;;;;;;16.71;47.40;102195.84;7261645;19;152553;-54
2023/04/02 07:53:07;;;;;;;;;;;;;;;16.74;47.41;102203.69;7260943;19;153607;-54
2023/04/02 07:55:34;;;;;;;;;;;;;;;16.73;47.55;102188.06;7265975;19;153315;-54
2023/04/02 07:58:03;;;;;;;;;;;;;;;16.74;47.39;102203.69;7260093;19;153120;-54
2023/04/02 08:00:30;;;;;;;;;;;;;;;16.74;47.22;102201.75;7261128;19;153650;-54
2023/04/02 08:02:56;;;;;;;;;;;;;;;16.71;47.50;102210.66;7262174;19;152196;-54
2023/04/02 08:05:26;;;;;;;;;;;;;;;16.74;47.32;102220.44;7258032;19;153041;-54
2023/04/02 08:07:54;;;;;;;;;;;;;;;16.67;47.58;102220.59;7259255;19;153899;-54
2023/04/02 08:10:21;;;;;;;;;;;;;;;16.68;47.19;102221.44;7263589;19;152694;-54
2023/04/02 08:12:48;;;;;;;;;;;;;;;16.72;47.08;102225.41;7266186;19;152594;-54
2023/04/02 08:15:16;;;;;;;;;;;;;;;16.73;47.22;102233.56;7257992;19;153508;-54
2023/04/02 08:17:43;;;;;;;;;;;;;;;16.70;47.16;102242.44;7267716;19;153795;-54
2023/04/02 08:20:19;;;;;;;;;;;;;;;16.70;47.08;102236.84;7261502;19;152340;-54
2023/04/02 08:22:46;;;;;;;;;;;;;;;16.72;47.26;102247.75;7258952;19;152587;-54
2023/04/02 08:25:13;;;;;;;;;;;;;;;16.70;47.31;102248.03;7258123;19;153647;-54
2023/04/02 08:27:40;;;;;;;;;;;;;;;16.69;47.02;102253.84;7257704;19;153464;-54
2023/04/02 08:30:08;;;;;;;;;;;;;;;16.71;47.33;102254.44;7259835;19;152209;-54
2023/04/02 08:32:35;;;;;;;;;;;;;;;16.69;47.14;102253.84;7253293;19;153433;-54
2023/04/02 08:35:02;;;;;;;;;;;;;;;16.69;47.22;102257.47;7255162;19;153422;-54
2023/04/02 08:37:29;;;;;;;;;;;;;;;16.70;47.25;102261.97;7252835;19;152278;-54
2023/04/02 08:39:56;;;;;;;;;;;;;;;16.71;47.24;102272.03;7263148;19;153662;-54
2023/04/02 08:42:32;;;;;;;;;;;;;;;16.69;47.12;102263.06;7261488;19;152860;-54
2023/04/02 08:45:06;;;;;;;;;;;;;;;16.70;47.24;102272.28;7259677;19;152931;-54
2023/04/02 08:47:52;;;;;;;;;;;;;;;16.68;47.37;102280.03;7259220;19;154957;-54
2023/04/02 08:50:30;;;;;;;;;;;;;;;16.67;47.14;102293.16;7263884;19;152603;-54
2023/04/02 08:52:59;;;;;;;;;;;;;;;16.67;46.88;102287.56;7260573;19;153442;-54
2023/04/02 08:55:36;;;;;;;;;;;;;;;16.68;47.13;102288.41;7257380;19;154132;-54
2023/04/02 08:58:04;;;;;;;;;;;;;;;16.69;47.06;102298.50;7262870;19;152452;-54
2023/04/02 09:00:33;;;;;;;;;;;;;;;16.68;47.43;102294.00;7258358;19;154403;-54
2023/04/02 09:03:12;;;;;;;;;;;;;;;16.69;47.42;102307.72;7264098;19;152665;-54
2023/04/02 09:05:41;;;;;;;;;;;;;;;16.69;47.35;102310.50;7258576;19;153951;-54
2023/04/02 09:08:16;;;;;;;;;;;;;;;16.71;47.11;102315.84;7260642;19;154760;-54
2023/04/02 09:10:53;;;;;;;;;;;;;;;16.71;47.19;102321.41;7260290;19;153316;-54
2023/04/02 09:13:23;;;;;;;;;;;;;;;16.70;47.47;102317.78;7260644;19;153441;-54
2023/04/02 09:15:55;;;;;;;;;;;;;;;16.70;47.10;102317.78;7256194;19;153438;-54
2023/04/02 09:18:22;;;;;;;;;;;;;;;16.69;47.37;102320.81;7253731;19;152925;-54
2023/04/02 09:20:49;;;;;;;;;;;;;;;16.69;46.98;102316.09;7261067;19;152992;-54
2023/04/02 09:23:20;;;;;;;;;;;;;;;16.70;47.35;102319.72;7258656;19;154039;-54
2023/04/02 09:25:48;;;;;;;;;;;;;;;16.72;47.01;102323.09;7266888;19;152256;-54
2023/04/02 09:28:29;;;;;;;;;;;;;;;16.69;47.30;102329.19;7258544;19;154091;-54
2023/04/02 09:31:06;;;;;;;;;;;;;;;16.73;47.31;102334.00;7257275;19;152559;-54
2023/04/02 09:33:40;;;;;;;;;;;;;;;16.74;47.10;102334.88;7261861;19;152702;-54
2023/04/02 09:36:16;;;;;;;;;;;;;;;16.73;47.02;102336.81;7256525;19;154482;-54
2023/04/02 09:38:53;;;;;;;;;;;;;;;16.71;47.25;102332.59;7259951;19;153843;-54
2023/04/02 09:41:26;;;;;;;;;;;;;;;16.73;46.93;102336.81;7256896;19;154105;-56
2023/04/02 09:44:10;;;;;;;;;;;;;;;16.68;47.01;102333.91;7258511;19;153525;-55
2023/04/02 09:46:46;;;;;;;;;;;;;;;16.73;46.97;102347.13;7259256;19;154672;-55
2023/04/02 09:49:15;;;;;;;;;;;;;;;16.69;47.08;102344.00;7259451;19;154458;-55
2023/04/02 09:51:42;;;;;;;;;;;;;;;16.69;47.18;102344.00;7255980;19;151904;-55
2023/04/02 09:54:16;;;;;;;;;;;;;;;16.69;46.98;102346.78;7255963;19;153935;-55
2023/04/02 09:56:52;;;;;;;;;;;;;;;16.69;46.98;102341.19;7253877;19;154234;-55
2023/04/02 09:59:20;;;;;;;;;;;;;;;16.72;47.10;102351.00;7256872;19;152571;-55
2023/04/02 10:01:59;;;;;;;;;;;;;;;16.73;46.95;102361.06;7258287;19;153258;-55
2023/04/02 10:04:37;;;;;;;;;;;;;;;16.71;46.99;102371.66;7253330;19;154142;-55
2023/04/02 10:07:05;;;;;;;;;;;;;;;16.72;46.83;102378.91;7253368;19;153414;-55
2023/04/02 10:09:35;;;;;;;;;;;;;;;16.73;47.03;102389.84;7263435;19;152869;-55
2023/04/02 10:12:05;;;;;;;;;;;;;;;16.73;47.08;102391.78;7257139;19;152732;-55
2023/04/02 10:14:36;;;;;;;;;;;;;;;16.70;47.25;102383.91;7260481;19;153283;-55
2023/04/02 10:17:04;;;;;;;;;;;;;;;16.72;46.80;102392.84;7252422;19;153734;-55
2023/04/02 10:19:36;;;;;;;;;;;;;;;16.74;46.75;102397.13;7254535;19;152881;-54
2023/04/02 10:22:08;;;;;;;;;;;;;;;16.76;46.64;102402.47;7257853;19;154281;-55
2023/04/02 10:24:35;;;;;;;;;;;;;;;16.75;46.85;102406.34;7252413;19;154002;-54
2023/04/02 10:27:17;;;;;;;;;;;;;;;16.76;46.75;102405.25;7256737;19;153082;-55
2023/04/02 10:29:51;;;;;;;;;;;;;;;16.75;47.10;102412.78;7257733;19;154252;-55
2023/04/02 10:32:20;;;;;;;;;;;;;;;16.74;46.85;102418.59;7260479;19;153949;-55
2023/04/02 10:34:55;;;;;;;;;;;;;;;16.74;46.69;102413.00;7255146;19;152943;-55
2023/04/02 10:37:42;;;;;;;;;;;;;;;16.71;46.76;102419.09;7254209;19;154364;-55
2023/04/02 10:40:17;;;;;;;;;;;;;;;16.76;46.84;102430.38;7255174;19;151766;-55
2023/04/02 10:42:51;;;;;;;;;;;;;;;16.74;47.05;102433.41;7253165;19;152454;-55
2023/04/02 10:45:24;;;;;;;;;;;;;;;16.77;47.00;102432.03;7253988;19;153361;-55
2023/04/02 10:47:57;;;;;;;;;;;;;;;16.79;46.67;102436.31;7250740;19;152552;-54
2023/04/02 10:50:33;;;;;;;;;;;;;;;16.76;46.83;102425.59;7257457;19;153537;-54
2023/04/02 10:53:10;;;;;;;;;;;;;;;16.75;46.72;102428.66;7253646;19;153785;-54
2023/04/02 10:55:41;;;;;;;;;;;;;;;16.74;46.80;102433.41;7263432;19;152592;-54
2023/04/02 10:58:18;;;;;;;;;;;;;;;16.80;46.50;102431.56;7259371;19;152882;-54
2023/04/02 11:00:46;;;;;;;;;;;;;;;16.81;46.52;102427.66;7261488;19;153784;-54
2023/04/02 11:03:17;;;;;;;;;;;;;;;16.80;46.72;102426.00;7266181;19;153974;-54
2023/04/02 11:05:45;;;;;;;;;;;;;;;16.82;46.69;102429.38;7258424;19;154154;-54
2023/04/02 11:08:17;;;;;;;;;;;;;;;16.79;46.78;102429.88;7260000;19;154144;-54
2023/04/02 11:10:47;;;;;;;;;;;;;;;16.81;46.85;102433.25;7263484;19;153362;-54
2023/04/02 11:13:19;;;;;;;;;;;;;;;16.79;46.92;102427.94;7260556;19;154791;-54
2023/04/02 11:15:46;;;;;;;;;;;;;;;16.81;46.70;102436.88;7260946;19;152171;-54
2023/04/02 11:18:21;;;;;;;;;;;;;;;16.82;46.45;102429.38;7267521;19;153445;-54
2023/04/02 11:20:48;;;;;;;;;;;;;;;16.83;46.66;102442.22;7261567;19;152134;-54
2023/04/02 11:23:17;;;;;;;;;;;;;;;16.85;46.65;102432.50;7263540;19;152817;-54
2023/04/02 11:25:45;;;;;;;;;;;;;;;16.85;46.38;102445.63;7255727;19;154077;-54
2023/04/02 11:28:23;;;;;;;;;;;;;;;16.82;46.63;102446.97;7256047;19;152571;-54
2023/04/02 11:30:51;;;;;;;;;;;;;;;16.82;46.55;102441.38;7261673;19;152755;-54
2023/04/02 11:33:38;;;;;;;;;;;;;;;16.83;46.39;102443.09;7261263;19;154005;-54
2023/04/02 11:36:20;;;;;;;;;;;;;;;16.82;46.64;102452.53;7258955;19;153502;-54
2023/04/02 11:38:48;;;;;;;;;;;;;;;16.83;46.37;102453.41;7263276;19;152778;-54
2023/04/02 11:41:37;;;;;;;;;;;;;;;16.83;46.55;102458.97;7265908;19;152348;-54
2023/04/02 11:44:05;;;;;;;;;;;;;;;16.82;46.63;102466.50;7258862;19;154146;-54
2023/04/02 11:46:35;;;;;;;;;;;;;;;16.82;46.59;102462.84;7255695;19;153900;-53
2023/04/02 11:49:12;;;;;;;;;;;;;;;16.83;46.50;102475.72;7258346;19;151850;-54
2023/04/02 11:51:39;;;;;;;;;;;;;;;16.83;46.41;102468.19;7262027;19;154140;-54
2023/04/02 11:54:20;;;;;;;;;;;;;;;16.83;46.56;102472.94;7256564;19;153665;-54
2023/04/02 11:56:54;;;;;;;;;;;;;;;16.84;46.34;102478.28;7256346;19;153905;-55
2023/04/02 11:59:31;;;;;;;;;;;;;;;16.86;46.63;102480.81;7262719;19;153484;-54
2023/04/02 12:02:07;;;;;;;;;;;;;;;16.86;46.28;102481.66;7264598;19;153342;-54
2023/04/02 12:04:35;;;;;;;;;;;;;;;16.84;46.70;102483.88;7259254;19;153591;-54
2023/04/02 12:07:16;;;;;;;;;;;;;;;16.86;46.20;102489.19;7256145;19;153609;-54
2023/04/02 12:09:46;;;;;;;;;;;;;;;16.85;46.63;102488.31;7262248;19;152385;-54
2023/04/02 12:12:16;;;;;;;;;;;;;;;16.85;46.64;102487.50;7261707;19;153163;-54
2023/04/02 12:14:45;;;;;;;;;;;;;;;16.86;46.37;102489.19;7255366;19;154633;-54
2023/04/02 12:17:22;;;;;;;;;;;;;;;16.88;46.35;102490.66;7257783;19;152220;-54
2023/04/02 12:19:51;;;;;;;;;;;;;;;16.93;46.22;102494.63;7260976;19;152824;-54
2023/04/02 12:22:23;;;;;;;;;;;;;;;16.93;46.40;102489.06;7259533;19;154339;-54
2023/04/02 12:24:52;;;;;;;;;;;;;;;16.92;46.23;102504.94;7267712;19;152315;-54
2023/04/02 12:27:22;;;;;;;;;;;;;;;16.95;46.57;102506.38;7256901;19;153182;-54
2023/04/02 12:29:50;;;;;;;;;;;;;;;16.98;46.20;102503.97;7262995;19;152787;-54
2023/04/02 12:32:20;;;;;;;;;;;;;;;17.02;46.39;102495.94;7261934;19;152293;-54
2023/04/02 12:34:48;;;;;;;;;;;;;;;17.04;46.42;102508.56;7260425;19;153966;-54
2023/04/02 12:37:24;;;;;;;;;;;;;;;17.08;46.21;102509.75;7258347;19;152946;-54
2023/04/02 12:39:52;;;;;;;;;;;;;;;17.09;46.05;102505.88;7258402;19;153399;-54
2023/04/02 12:42:30;;;;;;;;;;;;;;;17.07;46.28;102510.03;7260520;19;154062;-54
2023/04/02 12:44:57;;;;;;;;;;;;;;;17.07;46.49;102507.22;7255444;19;152497;-54
2023/04/02 12:47:24;;;;;;;;;;;;;;;17.10;46.06;102517.91;7260403;19;154486;-54
2023/04/02 12:49:51;;;;;;;;;;;;;;;17.11;46.31;102522.38;7258287;19;151920;-54